Time;durP1;ratioP1;P1;durP2;ratioP2;P2;SDS_P1;SDS_P2;PMS_P1;PMS_P2;Temp;Humidity;BMP_temperature;BMP_pressure;BME280_temperature;BME280_humidity;BME280_pressure;Samples;Min_cycle;Max_cycle;Signal;HPM_P1;HPM_P2
2022/08/21 00:01:37;;;;;;;7.55;5.85;;;14.60;99.90;;;;;;5050815;28;20033;-69
2022/08/21 00:04:07;;;;;;;10.70;6.82;;;14.50;99.90;;;;;;5045634;28;20059;-69
2022/08/21 00:06:33;;;;;;;11.80;7.10;;;14.50;99.90;;;;;;5048641;28;20076;-69
2022/08/21 00:08:59;;;;;;;11.32;7.50;;;14.50;99.90;;;;;;5061029;28;20041;-69
2022/08/21 00:11:26;;;;;;;11.65;7.30;;;14.50;99.90;;;;;;5055045;28;20381;-69
2022/08/21 00:13:52;;;;;;;12.63;7.80;;;14.50;99.90;;;;;;5058824;28;20041;-69
2022/08/21 00:16:18;;;;;;;12.13;7.60;;;14.50;99.90;;;;;;5054901;28;20546;-69
2022/08/21 00:18:44;;;;;;;14.32;8.27;;;14.40;99.90;;;;;;5055981;28;20070;-69
2022/08/21 00:21:12;;;;;;;14.55;7.68;;;14.50;99.90;;;;;;5042535;28;20052;-69
2022/08/21 00:23:37;;;;;;;14.73;8.68;;;14.40;99.90;;;;;;5062551;28;20037;-69
2022/08/21 00:26:04;;;;;;;14.00;8.88;;;14.40;99.90;;;;;;5026992;28;20041;-69
2022/08/21 00:28:30;;;;;;;18.00;10.75;;;14.40;99.90;;;;;;5040399;28;20040;-69
2022/08/21 00:30:56;;;;;;;18.90;11.05;;;14.50;99.90;;;;;;5043510;28;20076;-69
2022/08/21 00:33:23;;;;;;;16.65;10.15;;;14.40;99.90;;;;;;5043995;28;20384;-69
2022/08/21 00:35:48;;;;;;;16.67;10.25;;;14.50;99.90;;;;;;5043324;28;20052;-69
2022/08/21 00:38:14;;;;;;;13.85;9.30;;;14.50;99.90;;;;;;5045018;28;20045;-69
2022/08/21 00:40:46;;;;;;;13.60;9.00;;;14.50;99.90;;;;;;5044187;28;20107;-69
2022/08/21 00:43:15;;;;;;;11.63;8.85;;;14.60;99.90;;;;;;5047344;28;20043;-69
2022/08/21 00:45:41;;;;;;;10.75;8.05;;;14.60;99.90;;;;;;5041271;28;20500;-69
2022/08/21 00:48:07;;;;;;;10.75;7.88;;;14.50;99.90;;;;;;5040026;28;20044;-69
2022/08/21 00:50:37;;;;;;;12.13;6.85;;;14.50;99.90;;;;;;5042691;28;20037;-69
2022/08/21 00:53:05;;;;;;;7.85;5.80;;;14.40;99.90;;;;;;5039949;28;20111;-69
2022/08/21 00:55:32;;;;;;;7.10;5.80;;;14.40;99.90;;;;;;5058519;28;20048;-69
2022/08/21 00:58:00;;;;;;;11.18;6.25;;;14.30;99.90;;;;;;5040372;28;20095;-69
2022/08/21 01:00:30;;;;;;;9.02;5.72;;;14.30;99.90;;;;;;5040919;28;20041;-69
2022/08/21 01:02:57;;;;;;;8.60;5.93;;;14.30;99.90;;;;;;5040973;28;20037;-69
2022/08/21 01:05:23;;;;;;;7.68;5.40;;;14.20;99.90;;;;;;5033123;28;20094;-69
2022/08/21 01:07:49;;;;;;;6.07;4.70;;;14.20;99.90;;;;;;5034947;28;20044;-69
2022/08/21 01:10:16;;;;;;;8.05;5.80;;;14.10;99.90;;;;;;5039903;28;20048;-69
2022/08/21 01:12:42;;;;;;;9.50;5.65;;;14.10;99.90;;;;;;5043858;28;20044;-69
2022/08/21 01:15:10;;;;;;;7.88;6.18;;;14.10;99.90;;;;;;5050506;28;20097;-68
2022/08/21 01:17:36;;;;;;;10.90;6.40;;;14.00;99.90;;;;;;5046122;28;20053;-68
2022/08/21 01:20:07;;;;;;;9.50;6.93;;;13.90;99.90;;;;;;5045370;28;20047;-68
2022/08/21 01:22:33;;;;;;;7.60;5.47;;;13.90;99.90;;;;;;5060391;28;20131;-68
2022/08/21 01:24:58;;;;;;;4.85;4.25;;;13.80;99.90;;;;;;5044898;28;20115;-68
2022/08/21 01:27:24;;;;;;;7.80;5.40;;;13.70;99.90;;;;;;5044099;28;20049;-69
2022/08/21 01:30:03;;;;;;;7.78;5.13;;;13.60;99.90;;;;;;5042994;28;20283;-68
2022/08/21 01:32:29;;;;;;;8.88;6.35;;;13.70;99.90;;;;;;5045266;28;20048;-68
2022/08/21 01:34:54;;;;;;;11.82;7.40;;;13.60;99.90;;;;;;5044094;28;20051;-68
2022/08/21 01:37:21;;;;;;;7.50;6.68;;;13.60;99.90;;;;;;5059814;28;20128;-68
2022/08/21 01:39:47;;;;;;;7.97;6.20;;;13.60;99.90;;;;;;5047620;28;20048;-68
2022/08/21 01:42:14;;;;;;;5.82;4.72;;;13.70;99.90;;;;;;5047927;28;20037;-68
2022/08/21 01:44:40;;;;;;;5.60;4.78;;;13.70;99.90;;;;;;5046649;28;20136;-68
2022/08/21 01:47:09;;;;;;;7.47;4.85;;;13.60;99.90;;;;;;5045722;28;20041;-68
2022/08/21 01:49:37;;;;;;;5.18;4.10;;;13.50;99.90;;;;;;5044746;28;20053;-68
2022/08/21 01:52:04;;;;;;;5.18;3.92;;;13.50;99.90;;;;;;5059021;28;20044;-67
2022/08/21 01:54:30;;;;;;;3.58;3.28;;;13.50;99.90;;;;;;5059525;28;20411;-67
2022/08/21 01:56:55;;;;;;;3.42;3.00;;;13.50;99.90;;;;;;5048428;28;20041;-67
2022/08/21 01:59:22;;;;;;;3.95;3.58;;;13.50;99.90;;;;;;5042966;28;20389;-67
2022/08/21 02:01:49;;;;;;;3.67;3.38;;;13.50;99.90;;;;;;5045909;28;20036;-67
2022/08/21 02:04:15;;;;;;;5.20;3.33;;;13.50;99.90;;;;;;5057244;28;20468;-67
2022/08/21 02:06:41;;;;;;;3.75;3.30;;;13.40;99.90;;;;;;5047081;28;20047;-67
2022/08/21 02:09:08;;;;;;;3.75;2.55;;;13.30;99.90;;;;;;5052577;28;20037;-67
2022/08/21 02:11:36;;;;;;;2.63;2.40;;;13.30;99.90;;;;;;5063835;28;20390;-67
2022/08/21 02:14:01;;;;;;;4.03;2.72;;;13.30;99.90;;;;;;5051130;28;20033;-67
2022/08/21 02:16:27;;;;;;;3.88;3.20;;;13.30;99.90;;;;;;5051673;28;20110;-67
2022/08/21 02:18:53;;;;;;;4.43;3.15;;;13.30;99.90;;;;;;5047210;28;20048;-67
2022/08/21 02:21:18;;;;;;;6.47;4.30;;;13.20;99.90;;;;;;5048520;28;20041;-67
2022/08/21 02:23:44;;;;;;;6.50;4.85;;;13.20;99.90;;;;;;5051096;28;20041;-67
2022/08/21 02:26:11;;;;;;;7.70;5.20;;;13.10;99.90;;;;;;5051146;28;20041;-67
2022/08/21 02:28:37;;;;;;;7.68;5.78;;;13.10;99.90;;;;;;5058056;28;20112;-67
2022/08/21 02:31:03;;;;;;;6.82;4.93;;;13.10;99.90;;;;;;5044339;28;20045;-67
2022/08/21 02:33:29;;;;;;;5.38;4.47;;;13.00;99.90;;;;;;5053549;28;20048;-67
2022/08/21 02:35:56;;;;;;;4.85;3.70;;;13.00;99.90;;;;;;5049214;28;20036;-67
2022/08/21 02:38:30;;;;;;;5.75;4.40;;;13.00;99.90;;;;;;5049296;28;20063;-66
2022/08/21 02:40:57;;;;;;;5.50;4.90;;;13.00;99.90;;;;;;5041073;28;20056;-66
2022/08/21 02:43:24;;;;;;;5.22;4.72;;;12.90;99.90;;;;;;5050130;28;20033;-66
2022/08/21 02:45:51;;;;;;;5.55;4.70;;;12.90;99.90;;;;;;5051227;28;20052;-66
2022/08/21 02:48:20;;;;;;;7.00;5.30;;;12.90;99.90;;;;;;5056462;28;20048;-66
2022/08/21 02:50:51;;;;;;;6.95;5.80;;;12.80;99.90;;;;;;5047556;28;20143;-66
2022/08/21 02:53:17;;;;;;;9.23;6.13;;;12.80;99.90;;;;;;5052391;28;20060;-66
2022/08/21 02:55:48;;;;;;;9.45;6.47;;;12.80;99.90;;;;;;5060146;28;20377;-66
2022/08/21 02:58:16;;;;;;;7.50;5.90;;;12.80;99.90;;;;;;5047843;28;20119;-66
2022/08/21 03:00:41;;;;;;;7.35;6.43;;;12.90;99.90;;;;;;5049146;28;20041;-66
2022/08/21 03:03:07;;;;;;;9.10;6.47;;;12.80;99.90;;;;;;5059336;28;20577;-67
2022/08/21 03:05:34;;;;;;;9.45;6.53;;;12.80;99.90;;;;;;5051901;28;20480;-67
2022/08/21 03:08:02;;;;;;;8.43;6.72;;;12.80;99.90;;;;;;5061600;28;20041;-67
2022/08/21 03:10:28;;;;;;;8.25;6.35;;;12.90;99.90;;;;;;5048264;28;20127;-67
2022/08/21 03:12:54;;;;;;;7.43;6.25;;;12.90;99.90;;;;;;5046752;28;20045;-67
2022/08/21 03:15:23;;;;;;;8.93;6.10;;;12.80;99.90;;;;;;5055513;28;20045;-67
2022/08/21 03:17:50;;;;;;;9.15;6.70;;;12.90;99.90;;;;;;5047991;28;20439;-67
2022/08/21 03:20:18;;;;;;;9.98;7.05;;;12.90;99.90;;;;;;5054402;28;20029;-66
2022/08/21 03:22:44;;;;;;;8.50;7.50;;;12.80;99.90;;;;;;5057102;28;20395;-67
2022/08/21 03:25:10;;;;;;;13.00;8.63;;;12.80;99.90;;;;;;5051786;28;20041;-67
2022/08/21 03:27:36;;;;;;;13.13;9.25;;;12.90;99.90;;;;;;5058426;28;20059;-67
2022/08/21 03:30:05;;;;;;;9.65;8.50;;;12.90;99.90;;;;;;5053698;28;20391;-66
2022/08/21 03:32:31;;;;;;;12.52;9.60;;;13.00;99.90;;;;;;5057219;28;20103;-67
2022/08/21 03:34:57;;;;;;;14.25;10.25;;;13.00;99.90;;;;;;5051919;28;20448;-67
2022/08/21 03:37:24;;;;;;;18.02;11.05;;;12.90;99.90;;;;;;5053591;28;20096;-67
2022/08/21 03:39:50;;;;;;;18.75;11.13;;;12.90;99.90;;;;;;5061569;28;20037;-67
2022/08/21 03:42:16;;;;;;;14.38;10.82;;;13.00;99.90;;;;;;5045615;28;20036;-67
2022/08/21 03:44:42;;;;;;;16.30;10.60;;;13.00;99.90;;;;;;5049236;28;20107;-67
2022/08/21 03:47:08;;;;;;;16.10;11.63;;;13.00;99.90;;;;;;5062042;28;20049;-67
2022/08/21 03:49:33;;;;;;;19.13;12.13;;;13.00;99.90;;;;;;5053535;28;20299;-67
2022/08/21 03:51:59;;;;;;;16.70;12.10;;;13.00;99.90;;;;;;5054376;28;20040;-67
2022/08/21 03:54:25;;;;;;;17.77;12.07;;;13.10;99.90;;;;;;5058237;28;20040;-67
2022/08/21 03:56:51;;;;;;;16.50;11.18;;;13.10;99.90;;;;;;5065019;28;20064;-67
2022/08/21 03:59:17;;;;;;;18.08;11.68;;;13.10;99.90;;;;;;5050151;28;20041;-67
2022/08/21 04:01:54;;;;;;;15.40;11.43;;;13.10;99.90;;;;;;5046927;28;20037;-67
2022/08/21 04:04:20;;;;;;;22.17;12.30;;;13.10;99.90;;;;;;5050645;28;20041;-67
2022/08/21 04:06:45;;;;;;;16.40;11.75;;;13.10;99.90;;;;;;5051422;28;20082;-67
2022/08/21 04:09:11;;;;;;;18.60;11.98;;;13.10;99.90;;;;;;5048199;28;20041;-67
2022/08/21 04:11:37;;;;;;;15.93;11.68;;;13.10;99.90;;;;;;5052460;28;20091;-67
2022/08/21 04:14:03;;;;;;;17.88;12.50;;;13.10;99.90;;;;;;5051581;28;20037;-67
2022/08/21 04:16:28;;;;;;;21.15;12.48;;;13.10;99.90;;;;;;5057628;28;20551;-67
2022/08/21 04:18:54;;;;;;;17.08;12.43;;;13.10;99.90;;;;;;5056749;28;20128;-67
2022/08/21 04:21:19;;;;;;;16.55;12.38;;;13.00;99.90;;;;;;5057292;28;20032;-67
2022/08/21 04:23:45;;;;;;;17.38;13.20;;;13.00;99.90;;;;;;5057333;28;20504;-67
2022/08/21 04:26:10;;;;;;;16.65;12.23;;;13.00;99.90;;;;;;5054500;28;20056;-67
2022/08/21 04:28:36;;;;;;;18.65;12.13;;;13.00;99.90;;;;;;5057630;28;20048;-67
2022/08/21 04:31:02;;;;;;;18.10;13.00;;;13.10;99.90;;;;;;5053599;28;20083;-67
2022/08/21 04:33:27;;;;;;;19.95;13.27;;;13.00;99.90;;;;;;5056913;28;20075;-67
2022/08/21 04:35:53;;;;;;;16.95;12.80;;;13.00;99.90;;;;;;5053034;28;20127;-67
2022/08/21 04:38:20;;;;;;;23.48;12.35;;;13.00;99.90;;;;;;5054802;28;20041;-67
2022/08/21 04:40:48;;;;;;;16.02;12.38;;;13.00;99.90;;;;;;5049615;28;20041;-67
2022/08/21 04:43:14;;;;;;;17.48;11.55;;;13.00;99.90;;;;;;5049372;28;20064;-67
2022/08/21 04:45:45;;;;;;;17.85;12.57;;;13.00;99.90;;;;;;5074062;28;20069;-67
2022/08/21 04:48:14;;;;;;;16.90;11.80;;;13.00;99.90;;;;;;5052124;28;20127;-67
2022/08/21 04:50:49;;;;;;;18.75;11.20;;;13.00;99.90;;;;;;5051019;28;20119;-67
2022/08/21 04:53:21;;;;;;;16.00;11.48;;;13.00;99.90;;;;;;5051314;28;20052;-67
2022/08/21 04:55:47;;;;;;;15.10;11.10;;;13.00;99.90;;;;;;5050471;28;20037;-67
2022/08/21 04:58:17;;;;;;;14.50;11.05;;;13.10;99.90;;;;;;5047070;28;20036;-67
2022/08/21 05:00:43;;;;;;;14.05;10.65;;;13.00;99.90;;;;;;5051203;28;20036;-67
2022/08/21 05:03:11;;;;;;;16.83;10.88;;;13.10;99.90;;;;;;5051657;28;20044;-67
2022/08/21 05:05:36;;;;;;;15.15;10.10;;;13.10;99.90;;;;;;5047069;28;20037;-67
2022/08/21 05:08:03;;;;;;;15.35;10.07;;;13.20;99.90;;;;;;5051538;28;20047;-67
2022/08/21 05:10:31;;;;;;;14.48;9.30;;;13.30;99.90;;;;;;5048830;28;20053;-67
2022/08/21 05:12:57;;;;;;;14.05;9.00;;;13.40;99.90;;;;;;5051701;28;20075;-67
2022/08/21 05:15:23;;;;;;;14.15;8.90;;;13.50;99.90;;;;;;5051463;28;20045;-67
2022/08/21 05:17:50;;;;;;;14.25;8.48;;;13.50;99.90;;;;;;5052000;28;20496;-67
2022/08/21 05:20:16;;;;;;;14.85;8.45;;;13.70;99.90;;;;;;5045795;28;20553;-67
2022/08/21 05:22:42;;;;;;;10.75;7.90;;;13.70;99.90;;;;;;5048696;28;20128;-67
2022/08/21 05:25:09;;;;;;;16.60;7.85;;;13.80;99.90;;;;;;5047570;28;20036;-67
2022/08/21 05:27:35;;;;;;;16.63;7.95;;;13.90;99.90;;;;;;5064726;28;20431;-68
2022/08/21 05:30:01;;;;;;;15.63;8.38;;;14.00;99.90;;;;;;5059758;28;20040;-68
2022/08/21 05:32:28;;;;;;;12.63;8.18;;;14.00;99.90;;;;;;5049261;28;20055;-68
2022/08/21 05:34:54;;;;;;;13.13;8.02;;;14.10;99.90;;;;;;5046664;28;20383;-68
2022/08/21 05:37:20;;;;;;;15.30;7.78;;;14.20;99.90;;;;;;5045753;28;20133;-68
2022/08/21 05:39:46;;;;;;;19.17;8.18;;;14.30;99.90;;;;;;5045650;28;20496;-68
2022/08/21 05:42:11;;;;;;;13.88;7.57;;;14.30;99.90;;;;;;5045683;28;20491;-68
2022/08/21 05:44:37;;;;;;;14.13;7.70;;;14.40;99.90;;;;;;5045840;28;20395;-68
2022/08/21 05:47:08;;;;;;;15.85;7.43;;;14.50;99.90;;;;;;5059367;28;20041;-68
2022/08/21 05:49:34;;;;;;;13.25;7.43;;;14.60;99.90;;;;;;5047244;28;20048;-68
2022/08/21 05:51:59;;;;;;;15.43;7.53;;;14.70;99.90;;;;;;5045485;28;20040;-68
2022/08/21 05:54:25;;;;;;;14.93;7.47;;;14.80;99.90;;;;;;5042961;28;20424;-68
2022/08/21 05:56:51;;;;;;;11.98;7.45;;;14.80;99.90;;;;;;5028072;28;20041;-68
2022/08/21 05:59:18;;;;;;;13.27;7.82;;;14.80;99.90;;;;;;5048691;28;20084;-68
2022/08/21 06:01:45;;;;;;;13.40;7.55;;;15.00;99.90;;;;;;5045337;28;20037;-68
2022/08/21 06:04:11;;;;;;;14.35;7.70;;;15.20;99.90;;;;;;5062538;28;20120;-68
2022/08/21 06:06:37;;;;;;;15.15;8.05;;;15.20;99.90;;;;;;5047453;28;20041;-68
2022/08/21 06:09:03;;;;;;;13.43;7.50;;;15.30;99.90;;;;;;5050408;28;20505;-67
2022/08/21 06:11:29;;;;;;;15.00;7.72;;;15.40;99.90;;;;;;5044178;28;20049;-67
2022/08/21 06:13:54;;;;;;;16.02;7.75;;;15.40;99.90;;;;;;5047717;28;20040;-66
2022/08/21 06:16:21;;;;;;;13.68;7.50;;;15.50;99.90;;;;;;5059180;28;20037;-67
2022/08/21 06:18:47;;;;;;;16.60;7.75;;;15.50;99.90;;;;;;5046778;28;20049;-67
2022/08/21 06:21:13;;;;;;;11.95;7.85;;;15.60;99.90;;;;;;5045227;28;20037;-67
2022/08/21 06:23:39;;;;;;;12.70;7.15;;;15.80;99.90;;;;;;5052965;28;20041;-67
2022/08/21 06:26:06;;;;;;;15.27;7.30;;;15.80;99.90;;;;;;5046974;28;20802;-67
2022/08/21 06:28:33;;;;;;;15.35;7.97;;;15.90;99.90;;;;;;5050662;28;20122;-67
2022/08/21 06:30:59;;;;;;;13.75;7.72;;;16.00;99.90;;;;;;5061326;28;20381;-67
2022/08/21 06:33:24;;;;;;;13.35;7.97;;;16.00;99.90;;;;;;5050559;28;20111;-67
2022/08/21 06:35:50;;;;;;;13.63;7.43;;;16.10;99.90;;;;;;5059045;28;20059;-67
2022/08/21 06:38:16;;;;;;;14.75;7.00;;;16.30;99.90;;;;;;5049483;28;20526;-67
2022/08/21 06:40:42;;;;;;;14.15;7.53;;;16.40;99.90;;;;;;5049844;28;20046;-67
2022/08/21 06:43:14;;;;;;;15.18;7.28;;;16.50;99.90;;;;;;5048571;28;20052;-67
2022/08/21 06:45:40;;;;;;;16.08;7.45;;;16.50;99.90;;;;;;5063587;28;20392;-67
2022/08/21 06:48:09;;;;;;;10.88;6.70;;;16.60;99.90;;;;;;5045367;28;20037;-67
2022/08/21 06:50:35;;;;;;;13.90;7.57;;;16.70;99.90;;;;;;5049387;28;20052;-67
2022/08/21 06:53:06;;;;;;;13.13;6.55;;;16.80;99.90;;;;;;5051455;28;20048;-66
2022/08/21 06:55:32;;;;;;;14.63;7.60;;;16.90;99.90;;;;;;5052863;28;20075;-66
2022/08/21 06:57:58;;;;;;;13.23;6.80;;;17.00;99.90;;;;;;5055393;28;20063;-66
2022/08/21 07:00:24;;;;;;;17.73;6.78;;;17.10;99.90;;;;;;5057644;28;20116;-67
2022/08/21 07:02:50;;;;;;;12.18;7.50;;;17.20;99.90;;;;;;5057231;28;20479;-66
2022/08/21 07:05:15;;;;;;;19.23;6.38;;;17.30;99.90;;;;;;5072349;28;20044;-66
2022/08/21 07:07:41;;;;;;;12.38;6.47;;;17.40;99.90;;;;;;5071373;28;20574;-67
2022/08/21 07:10:07;;;;;;;15.18;7.00;;;17.50;99.90;;;;;;5054580;28;20380;-67
2022/08/21 07:12:33;;;;;;;12.60;6.63;;;17.60;99.90;;;;;;5038543;28;20037;-66
2022/08/21 07:15:01;;;;;;;15.43;6.82;;;17.70;99.90;;;;;;5055310;28;20079;-70
2022/08/21 07:17:27;;;;;;;13.35;6.38;;;17.70;99.90;;;;;;5050581;28;20041;-70
2022/08/21 07:19:52;;;;;;;15.60;6.65;;;17.80;99.90;;;;;;5049954;28;20079;-68
2022/08/21 07:22:20;;;;;;;17.17;6.82;;;17.90;99.90;;;;;;5057071;28;20043;-68
2022/08/21 07:24:46;;;;;;;14.35;5.95;;;17.90;99.90;;;;;;5050007;28;20127;-69
2022/08/21 07:27:12;;;;;;;13.85;6.82;;;18.00;99.90;;;;;;5050669;28;20037;-68
2022/08/21 07:29:38;;;;;;;11.13;6.07;;;18.10;99.90;;;;;;5065322;28;20495;-68
2022/08/21 07:32:05;;;;;;;16.13;6.55;;;18.10;99.90;;;;;;5051981;28;20037;-70
2022/08/21 07:34:31;;;;;;;11.93;6.03;;;18.30;99.90;;;;;;5047581;28;20570;-71
2022/08/21 07:36:58;;;;;;;15.35;5.97;;;18.30;99.90;;;;;;5061019;28;20049;-70
2022/08/21 07:39:24;;;;;;;10.27;5.63;;;18.30;99.90;;;;;;5058002;28;20040;-71
2022/08/21 07:41:49;;;;;;;17.55;5.05;;;18.50;99.90;;;;;;5046959;28;20523;-70
2022/08/21 07:44:15;;;;;;;10.27;4.70;;;18.50;99.90;;;;;;5047117;28;20045;-70
2022/08/21 07:46:41;;;;;;;20.45;5.60;;;18.60;99.90;;;;;;5065208;28;20132;-71
2022/08/21 07:49:06;;;;;;;15.60;5.38;;;18.60;99.90;;;;;;5047739;28;20067;-72
2022/08/21 07:51:33;;;;;;;14.18;4.80;;;18.70;99.90;;;;;;5060196;28;20061;-72
2022/08/21 07:54:00;;;;;;;13.25;4.80;;;18.70;99.90;;;;;;5045547;28;20115;-72
2022/08/21 07:56:26;;;;;;;12.88;4.82;;;18.80;99.90;;;;;;5049268;28;20432;-70
2022/08/21 07:58:52;;;;;;;17.80;5.15;;;18.80;99.90;;;;;;5047544;28;20044;-74
2022/08/21 08:01:18;;;;;;;15.45;6.15;;;18.90;99.90;;;;;;5046974;28;20041;-71
2022/08/21 08:03:44;;;;;;;11.80;5.82;;;18.90;99.90;;;;;;5043846;28;20052;-73
2022/08/21 08:06:12;;;;;;;12.55;5.25;;;18.90;99.90;;;;;;5025170;28;20041;-71
2022/08/21 08:08:41;;;;;;;13.05;4.97;;;19.00;99.90;;;;;;5043834;28;20052;-72
2022/08/21 08:11:14;;;;;;;13.93;5.38;;;19.10;99.90;;;;;;5047245;28;20033;-72
2022/08/21 08:13:46;;;;;;;6.43;2.17;;;19.20;99.90;;;;;;5045868;28;20411;-72
2022/08/21 08:16:13;;;;;;;10.18;2.47;;;19.30;99.90;;;;;;5047672;28;20047;-70
2022/08/21 08:18:39;;;;;;;7.70;2.55;;;19.40;99.90;;;;;;5040430;28;20041;-72
2022/08/21 08:21:05;;;;;;;5.28;2.15;;;19.40;99.90;;;;;;5043563;28;20103;-73
2022/08/21 08:23:31;;;;;;;9.43;2.25;;;19.50;99.90;;;;;;5046189;28;20080;-72
2022/08/21 08:25:57;;;;;;;6.68;2.20;;;19.50;99.90;;;;;;5044538;28;20033;-73
2022/08/21 08:28:23;;;;;;;9.23;2.10;;;19.60;99.90;;;;;;5045323;28;20056;-71
2022/08/21 08:30:49;;;;;;;7.57;2.55;;;19.70;99.90;;;;;;5043159;28;20102;-72
2022/08/21 08:33:16;;;;;;;6.57;2.05;;;19.70;99.90;;;;;;5058558;28;20047;-73
2022/08/21 08:35:45;;;;;;;8.63;2.38;;;19.70;99.90;;;;;;5040430;28;20041;-74
2022/08/21 08:38:11;;;;;;;9.75;2.42;;;19.80;99.90;;;;;;5048086;28;20523;-72
2022/08/21 08:40:51;;;;;;;6.75;2.33;;;19.90;99.90;;;;;;5048392;28;20642;-72
2022/08/21 08:43:17;;;;;;;6.43;2.30;;;20.00;99.90;;;;;;5049497;28;20155;-71
2022/08/21 08:45:48;;;;;;;9.13;2.75;;;20.00;99.90;;;;;;5045822;28;20036;-72
2022/08/21 08:48:36;;;;;;;8.63;2.70;;;20.00;99.90;;;;;;5045205;28;20037;-73
2022/08/21 08:51:04;;;;;;;11.07;2.85;;;20.10;99.90;;;;;;5062560;28;20043;-73
2022/08/21 08:53:36;;;;;;;9.90;4.07;;;20.20;99.90;;;;;;5050481;28;20153;-73
2022/08/21 08:56:04;;;;;;;8.15;3.10;;;20.20;99.90;;;;;;5049158;28;20045;-71
2022/08/21 08:58:44;;;;;;;8.60;2.63;;;20.30;99.90;;;;;;5049821;28;20052;-71
2022/08/21 09:01:18;;;;;;;8.18;2.80;;;20.40;99.90;;;;;;5049879;28;20092;-72
2022/08/21 09:03:49;;;;;;;11.98;3.22;;;20.50;99.90;;;;;;5043781;28;20088;-71
2022/08/21 09:06:27;;;;;;;11.50;3.13;;;20.60;99.90;;;;;;5050252;28;20118;-73
2022/08/21 09:09:08;;;;;;;11.43;3.60;;;20.60;99.90;;;;;;5049167;28;20052;-71
2022/08/21 09:12:01;;;;;;;11.85;3.78;;;20.70;99.90;;;;;;5049224;28;20072;-70
2022/08/21 09:14:59;;;;;;;10.80;3.83;;;20.80;99.90;;;;;;5025438;28;20061;-72
2022/08/21 09:17:34;;;;;;;9.07;3.20;;;20.90;99.90;;;;;;5035237;28;20415;-72
2022/08/21 09:20:16;;;;;;;7.13;3.20;;;20.80;99.90;;;;;;5032192;28;20040;-75
2022/08/21 09:22:51;;;;;;;9.77;3.97;;;20.90;99.90;;;;;;5049004;28;20132;-73
2022/08/21 09:25:27;;;;;;;9.73;3.97;;;21.10;99.90;;;;;;5049150;28;20041;-75
2022/08/21 09:27:54;;;;;;;10.45;3.20;;;21.20;99.90;;;;;;5055933;28;20040;-74
2022/08/21 09:30:26;;;;;;;11.60;3.08;;;21.30;99.90;;;;;;5040477;28;20041;-72
2022/08/21 09:32:52;;;;;;;12.38;3.60;;;21.50;99.90;;;;;;5057829;28;20055;-78
2022/08/21 09:35:20;;;;;;;15.52;3.08;;;21.50;99.90;;;;;;5026567;28;20032;-74
2022/08/21 09:37:49;;;;;;;14.65;3.40;;;21.40;99.90;;;;;;5054849;28;20048;-73
2022/08/21 09:40:20;;;;;;;8.30;3.00;;;21.40;99.90;;;;;;5044022;28;20559;-75
2022/08/21 09:42:56;;;;;;;12.00;3.20;;;21.20;99.90;;;;;;5027983;28;20032;-74
2022/08/21 09:45:22;;;;;;;9.15;3.28;;;20.90;99.90;;;;;;5047120;28;20392;-72
2022/08/21 09:47:47;;;;;;;9.48;3.78;;;20.90;99.90;;;;;;5048028;28;20048;-71
2022/08/21 09:50:20;;;;;;;10.60;3.55;;;20.90;99.90;;;;;;5049218;28;20029;-74
2022/08/21 09:52:53;;;;;;;11.27;3.50;;;20.90;99.90;;;;;;5040410;28;20076;-73
2022/08/21 09:58:31;;;;;;;8.60;2.97;;;20.70;99.90;;;;;;5037590;28;20071;-72
2022/08/21 10:01:00;;;;;;;9.15;2.80;;;20.80;99.90;;;;;;5048867;28;20041;-73
2022/08/21 10:03:25;;;;;;;10.40;2.80;;;21.10;99.90;;;;;;5046131;28;20087;-73
2022/08/21 10:05:56;;;;;;;11.75;3.42;;;21.40;99.90;;;;;;5047582;28;20502;-71
2022/08/21 10:08:24;;;;;;;10.13;3.10;;;21.60;99.90;;;;;;5040458;28;20174;-73
2022/08/21 10:11:02;;;;;;;11.65;3.15;;;21.50;99.90;;;;;;5044340;28;20029;-72
2022/08/21 10:13:28;;;;;;;8.73;2.70;;;21.40;99.90;;;;;;5044812;28;20043;-73
2022/08/21 10:16:04;;;;;;;12.07;3.05;;;21.40;99.90;;;;;;5039720;28;20041;-72
2022/08/21 10:18:44;;;;;;;7.72;2.80;;;21.50;99.90;;;;;;5041520;28;20202;-72
2022/08/21 10:21:30;;;;;;;8.63;2.78;;;22.00;99.90;;;;;;5059484;28;20045;-72
2022/08/21 10:23:59;;;;;;;12.93;2.40;;;22.30;99.90;;;;;;5058366;28;20041;-72
2022/08/21 10:26:24;;;;;;;10.38;2.80;;;22.50;99.90;;;;;;5044969;28;21124;-73
2022/08/21 10:29:21;;;;;;;9.48;2.67;;;22.70;99.90;;;;;;5043659;28;20103;-73
2022/08/21 10:31:49;;;;;;;10.75;3.05;;;22.90;99.90;;;;;;5052461;28;20045;-72
2022/08/21 10:34:39;;;;;;;8.63;3.30;;;23.10;99.90;;;;;;5042409;28;20045;-72
2022/08/21 10:37:05;;;;;;;10.50;3.10;;;23.30;99.90;;;;;;5045196;28;20071;-74
2022/08/21 10:39:44;;;;;;;9.52;2.75;;;23.20;99.90;;;;;;5046272;28;20037;-72
2022/08/21 10:42:33;;;;;;;10.73;3.30;;;23.20;99.90;;;;;;5049932;28;20124;-72
2022/08/21 10:45:27;;;;;;;9.50;2.90;;;23.20;99.90;;;;;;5045942;28;20091;-72
2022/08/21 10:47:56;;;;;;;10.25;3.03;;;22.90;99.90;;;;;;5047764;28;20048;-72
2022/08/21 10:50:33;;;;;;;8.95;2.97;;;23.00;99.90;;;;;;5043422;28;20047;-70
2022/08/21 10:53:32;;;;;;;12.68;3.15;;;23.00;99.90;;;;;;5047443;28;20037;-72
2022/08/21 10:56:13;;;;;;;10.13;2.83;;;22.90;99.90;;;;;;5046876;28;20424;-71
2022/08/21 10:59:01;;;;;;;8.85;3.15;;;22.70;99.90;;;;;;5047610;28;20050;-70
2022/08/21 11:01:29;;;;;;;9.55;2.90;;;22.50;99.90;;;;;;5062014;28;20048;-70
2022/08/21 11:04:11;;;;;;;10.60;2.58;;;22.30;99.90;;;;;;5043678;28;20534;-72
2022/08/21 11:06:42;;;;;;;10.83;3.13;;;22.20;99.90;;;;;;5055495;28;20055;-72
2022/08/21 11:09:14;;;;;;;8.70;2.88;;;22.30;99.90;;;;;;5048360;28;20358;-72
2022/08/21 11:12:12;;;;;;;8.90;2.95;;;22.60;99.90;;;;;;5047503;28;20235;-72
2022/08/21 11:15:06;;;;;;;11.50;3.55;;;22.80;99.90;;;;;;5045836;28;20056;-71
2022/08/21 11:18:14;;;;;;;9.95;2.70;;;22.80;99.90;;;;;;5046395;28;20566;-71
2022/08/21 11:21:02;;;;;;;9.02;2.58;;;23.00;99.90;;;;;;5042389;28;20095;-71
2022/08/21 11:23:38;;;;;;;10.77;2.60;;;23.10;99.90;;;;;;5041761;28;20073;-71
2022/08/21 11:26:31;;;;;;;8.23;2.53;;;23.20;99.90;;;;;;5044062;28;20108;-73
2022/08/21 11:29:09;;;;;;;10.15;2.67;;;23.30;99.90;;;;;;5038124;28;20103;-71
2022/08/21 11:32:05;;;;;;;8.85;2.83;;;23.30;99.90;;;;;;5043570;28;20048;-70
2022/08/21 11:34:57;;;;;;;7.00;2.22;;;23.30;99.90;;;;;;5043926;28;20045;-71
2022/08/21 11:37:42;;;;;;;9.23;2.75;;;23.50;99.90;;;;;;5048411;28;20045;-71
2022/08/21 11:40:30;;;;;;;8.60;2.80;;;23.70;99.90;;;;;;5048100;28;20117;-71
2022/08/21 11:43:27;;;;;;;8.20;2.75;;;23.80;99.90;;;;;;5028241;28;20061;-72
2022/08/21 11:46:07;;;;;;;9.27;2.50;;;24.10;99.90;;;;;;5067848;28;20037;-73
2022/08/21 11:48:54;;;;;;;7.90;2.90;;;24.30;99.90;;;;;;5033278;28;20381;-72
2022/08/21 11:51:32;;;;;;;10.77;3.45;;;24.40;99.90;;;;;;5069005;28;20611;-71
2022/08/21 11:54:09;;;;;;;10.27;3.20;;;24.30;99.90;;;;;;5051826;28;20049;-71
2022/08/21 11:57:05;;;;;;;10.45;3.00;;;24.30;99.90;;;;;;5045507;28;20053;-72
2022/08/21 11:59:40;;;;;;;11.55;3.78;;;24.10;99.90;;;;;;5047833;28;20131;-71
2022/08/21 12:02:13;;;;;;;10.55;3.00;;;24.10;99.90;;;;;;5049256;28;20111;-71
2022/08/21 12:04:51;;;;;;;8.20;3.15;;;23.90;99.90;;;;;;5052223;28;20037;-72
2022/08/21 12:07:37;;;;;;;7.60;2.60;;;23.70;99.90;;;;;;5051540;28;20083;-73
2022/08/21 12:10:16;;;;;;;8.88;2.53;;;23.40;99.90;;;;;;5051499;28;20048;-73
2022/08/21 12:12:43;;;;;;;7.30;2.60;;;23.10;99.90;;;;;;5049635;28;20051;-70
2022/08/21 12:15:21;;;;;;;10.98;2.88;;;22.90;99.90;;;;;;5062550;28;20132;-71
2022/08/21 12:17:59;;;;;;;10.93;2.70;;;22.80;99.90;;;;;;5050904;28;20075;-71
2022/08/21 12:20:34;;;;;;;8.65;2.80;;;22.80;99.90;;;;;;5050848;28;20047;-71
2022/08/21 12:23:09;;;;;;;9.43;2.65;;;22.90;99.90;;;;;;5050125;28;20036;-72
2022/08/21 12:25:41;;;;;;;9.57;3.25;;;23.20;99.90;;;;;;5051523;28;20570;-72
2022/08/21 12:28:13;;;;;;;6.47;2.53;;;23.30;99.90;;;;;;5051018;28;20059;-70
2022/08/21 12:30:44;;;;;;;10.68;2.90;;;23.40;99.90;;;;;;5048312;28;20075;-70
2022/08/21 12:33:37;;;;;;;9.82;3.08;;;23.60;99.90;;;;;;5050180;28;20041;-71
2022/08/21 12:36:21;;;;;;;12.02;3.50;;;23.90;99.90;;;;;;5050556;28;20041;-73
2022/08/21 12:38:49;;;;;;;10.40;3.50;;;24.00;99.90;;;;;;5050368;28;20049;-72
2022/08/21 12:41:30;;;;;;;8.63;2.72;;;24.20;99.90;;;;;;5050571;28;20119;-71
2022/08/21 12:44:09;;;;;;;11.02;3.45;;;24.20;99.90;;;;;;5034123;28;20041;-71
2022/08/21 12:46:51;;;;;;;11.55;3.08;;;24.00;99.90;;;;;;5051617;28;20045;-70
2022/08/21 12:49:31;;;;;;;9.87;3.70;;;23.70;99.90;;;;;;5049222;28;20131;-72
2022/08/21 12:52:11;;;;;;;14.48;3.35;;;23.30;99.90;;;;;;5049114;28;20044;-73
2022/08/21 12:54:44;;;;;;;12.60;3.45;;;23.00;99.90;;;;;;5050122;28;20043;-71
2022/08/21 12:57:20;;;;;;;8.80;3.45;;;22.90;99.90;;;;;;5046964;28;20175;-71